Time;durP1;ratioP1;P1;durP2;ratioP2;P2;SDS_P1;SDS_P2;PMS_P1;PMS_P2;Temp;Humidity;BMP_temperature;BMP_pressure;BME280_temperature;BME280_humidity;BME280_pressure;Samples;Min_cycle;Max_cycle;Signal;HPM_P1;HPM_P2
2024/01/31 00:01:51;;;;;;;16.17;12.30;;;7.50;99.90;;;;;;5030518;28;20184;-72
2024/01/31 00:04:17;;;;;;;16.03;11.50;;;7.60;99.90;;;;;;5030448;28;20322;-72
2024/01/31 00:06:47;;;;;;;16.70;11.73;;;7.60;99.90;;;;;;5030738;28;20206;-72
2024/01/31 00:09:13;;;;;;;16.97;11.80;;;7.50;99.90;;;;;;5033735;28;20175;-70
2024/01/31 00:11:39;;;;;;;16.63;12.23;;;7.60;99.90;;;;;;5033713;28;20771;-72
2024/01/31 00:14:07;;;;;;;14.87;11.43;;;7.60;99.90;;;;;;5032929;28;20203;-72
2024/01/31 00:16:33;;;;;;;18.87;12.47;;;7.60;99.90;;;;;;5034537;28;20179;-72
2024/01/31 00:18:59;;;;;;;18.03;13.33;;;7.60;99.90;;;;;;5034188;28;20187;-72
2024/01/31 00:21:24;;;;;;;21.60;12.93;;;7.60;99.90;;;;;;5034131;28;20195;-72
2024/01/31 00:23:50;;;;;;;20.60;13.13;;;7.60;99.90;;;;;;5034370;28;20211;-72
2024/01/31 00:26:16;;;;;;;20.13;13.03;;;7.60;99.90;;;;;;5034516;28;20183;-72
2024/01/31 00:28:41;;;;;;;20.50;12.27;;;7.50;99.90;;;;;;5033925;28;20685;-73
2024/01/31 00:31:10;;;;;;;18.07;12.60;;;7.60;99.90;;;;;;5032565;28;20206;-71
2024/01/31 00:33:36;;;;;;;16.90;12.70;;;7.50;99.90;;;;;;5033706;28;20294;-72
2024/01/31 00:36:01;;;;;;;18.17;12.20;;;7.50;99.90;;;;;;5034087;28;20633;-70
2024/01/31 00:38:27;;;;;;;17.77;12.83;;;7.50;99.90;;;;;;5032732;28;20183;-72
2024/01/31 00:40:54;;;;;;;21.83;13.47;;;7.50;99.90;;;;;;5034070;28;20172;-72
2024/01/31 00:43:19;;;;;;;21.43;13.70;;;7.50;99.90;;;;;;5033812;28;20569;-72
2024/01/31 00:45:45;;;;;;;18.37;13.40;;;7.50;99.90;;;;;;5033607;28;20202;-72
2024/01/31 00:48:11;;;;;;;18.97;14.50;;;7.50;99.90;;;;;;5033828;28;20172;-72
2024/01/31 00:50:36;;;;;;;26.27;15.70;;;7.50;99.90;;;;;;5033542;28;20646;-70
2024/01/31 00:53:03;;;;;;;22.03;14.53;;;7.50;99.90;;;;;;5033368;28;20207;-70
2024/01/31 00:55:28;;;;;;;18.57;13.73;;;7.50;99.90;;;;;;5033413;28;20164;-70
2024/01/31 00:57:54;;;;;;;24.83;13.13;;;7.50;99.90;;;;;;5033380;28;20657;-71
2024/01/31 01:00:23;;;;;;;20.47;13.50;;;7.40;99.90;;;;;;5033469;28;20254;-71
2024/01/31 01:02:49;;;;;;;24.97;14.73;;;7.40;99.90;;;;;;5033570;28;20171;-71
2024/01/31 01:05:14;;;;;;;21.27;15.00;;;7.40;99.90;;;;;;5065451;22;20226;-71
2024/01/31 01:07:41;;;;;;;24.57;14.50;;;7.40;99.90;;;;;;5053014;28;20228;-70
2024/01/31 01:10:11;;;;;;;22.17;14.87;;;7.30;99.90;;;;;;5053192;28;20497;-71
2024/01/31 01:12:37;;;;;;;22.20;14.80;;;7.30;99.90;;;;;;5052581;28;20369;-72
2024/01/31 01:15:03;;;;;;;22.33;15.13;;;7.30;99.90;;;;;;5071444;28;20676;-71
2024/01/31 01:17:28;;;;;;;25.40;14.90;;;7.30;99.90;;;;;;5072928;28;20249;-71
2024/01/31 01:19:54;;;;;;;20.80;14.50;;;7.30;99.90;;;;;;5064361;28;20195;-71
2024/01/31 01:22:20;;;;;;;22.10;14.23;;;7.30;99.90;;;;;;5052957;28;20675;-71
2024/01/31 01:24:45;;;;;;;22.43;15.07;;;7.30;99.90;;;;;;5052928;28;20194;-71
2024/01/31 01:27:11;;;;;;;20.57;14.70;;;7.30;99.90;;;;;;5062279;28;20178;-71
2024/01/31 01:29:37;;;;;;;20.50;14.23;;;7.30;99.90;;;;;;5072799;28;20228;-71
2024/01/31 01:32:02;;;;;;;22.17;13.93;;;7.30;99.90;;;;;;5072679;28;20264;-71
2024/01/31 01:34:28;;;;;;;22.60;14.80;;;7.30;99.90;;;;;;5055058;28;20194;-71
2024/01/31 01:36:53;;;;;;;26.60;15.80;;;7.30;99.90;;;;;;5072824;28;20257;-71
2024/01/31 01:39:19;;;;;;;25.00;17.07;;;7.20;99.90;;;;;;5072734;28;20176;-72
2024/01/31 01:41:49;;;;;;;26.13;16.70;;;7.20;99.90;;;;;;5064553;28;20183;-71
2024/01/31 01:44:14;;;;;;;26.80;16.40;;;7.20;99.90;;;;;;5052818;28;20594;-71
2024/01/31 01:46:40;;;;;;;28.30;16.90;;;7.20;99.90;;;;;;5052666;28;20246;-71
2024/01/31 01:49:06;;;;;;;28.63;17.63;;;7.20;99.90;;;;;;5052683;28;20175;-71
2024/01/31 01:51:32;;;;;;;26.97;17.33;;;7.30;99.90;;;;;;5065751;28;20197;-71
2024/01/31 01:53:59;;;;;;;25.00;16.80;;;7.30;99.90;;;;;;5072551;28;20561;-70
2024/01/31 01:56:25;;;;;;;26.23;16.73;;;7.30;99.90;;;;;;5052880;28;20242;-70
2024/01/31 01:58:52;;;;;;;28.53;18.00;;;7.30;99.90;;;;;;5052026;28;20575;-71
2024/01/31 02:01:18;;;;;;;28.80;18.60;;;7.30;99.90;;;;;;5051957;28;20182;-70
2024/01/31 02:03:45;;;;;;;29.67;18.07;;;7.20;99.90;;;;;;5051878;28;20203;-71
2024/01/31 02:06:10;;;;;;;30.43;18.63;;;7.30;99.90;;;;;;5052447;28;20649;-69
2024/01/31 02:08:36;;;;;;;35.07;18.97;;;7.30;99.90;;;;;;5052250;28;20186;-69
2024/01/31 02:11:01;;;;;;;32.40;20.30;;;7.30;99.90;;;;;;5070177;28;20230;-71
2024/01/31 02:13:27;;;;;;;30.03;20.03;;;7.20;99.90;;;;;;5072131;28;20413;-72
2024/01/31 02:15:53;;;;;;;28.70;19.30;;;7.20;99.90;;;;;;5071976;28;20176;-71
2024/01/31 02:18:21;;;;;;;25.77;18.50;;;7.30;99.90;;;;;;5071752;28;20227;-72
2024/01/31 02:20:46;;;;;;;30.27;18.70;;;7.30;99.90;;;;;;5071724;28;20261;-72
2024/01/31 02:23:13;;;;;;;32.07;19.60;;;7.30;99.90;;;;;;5062261;28;20193;-72
2024/01/31 02:25:38;;;;;;;35.00;20.17;;;7.40;99.90;;;;;;5051602;28;20171;-72
2024/01/31 02:28:04;;;;;;;31.70;20.00;;;7.40;99.90;;;;;;5051863;28;20201;-72
2024/01/31 02:30:29;;;;;;;31.40;20.30;;;7.40;99.90;;;;;;5052429;28;20190;-72
2024/01/31 02:32:56;;;;;;;34.23;20.70;;;7.40;99.90;;;;;;5050707;28;20206;-72
2024/01/31 02:35:22;;;;;;;35.20;21.83;;;7.40;99.90;;;;;;5051648;28;20677;-72
2024/01/31 02:37:48;;;;;;;34.43;20.73;;;7.40;99.90;;;;;;5051477;28;20224;-70
2024/01/31 02:40:14;;;;;;;35.30;20.83;;;7.50;99.90;;;;;;5051702;28;20537;-70
2024/01/31 02:42:40;;;;;;;32.00;21.03;;;7.50;99.90;;;;;;5068379;28;20681;-70
2024/01/31 02:45:06;;;;;;;35.97;22.53;;;7.50;99.90;;;;;;5071520;28;20239;-70
2024/01/31 02:47:33;;;;;;;35.00;20.23;;;7.40;99.90;;;;;;5071085;28;20173;-70
2024/01/31 02:49:59;;;;;;;37.30;22.07;;;7.40;99.90;;;;;;5071374;28;20166;-71
2024/01/31 02:52:25;;;;;;;39.87;22.03;;;7.40;99.90;;;;;;5051667;28;20210;-70
2024/01/31 02:54:51;;;;;;;36.77;21.17;;;7.30;99.90;;;;;;5061503;28;20212;-70
2024/01/31 02:57:17;;;;;;;36.57;20.70;;;7.40;99.90;;;;;;5071569;28;20249;-71
2024/01/31 02:59:43;;;;;;;39.23;22.77;;;7.30;99.90;;;;;;5053117;28;20185;-70
2024/01/31 03:02:08;;;;;;;38.40;21.33;;;7.30;99.90;;;;;;5071074;28;20648;-70
2024/01/31 03:04:34;;;;;;;41.80;21.80;;;7.40;99.90;;;;;;5070687;28;20263;-69
2024/01/31 03:06:59;;;;;;;33.60;20.87;;;7.40;99.90;;;;;;5071174;28;20541;-70
2024/01/31 03:09:26;;;;;;;37.33;21.97;;;7.40;99.90;;;;;;5062069;28;20179;-71
2024/01/31 03:11:52;;;;;;;33.57;21.80;;;7.40;99.90;;;;;;5050803;28;20270;-69
2024/01/31 03:14:18;;;;;;;35.47;21.97;;;7.50;99.90;;;;;;5051071;28;20186;-70
2024/01/31 03:16:43;;;;;;;36.83;22.37;;;7.50;99.90;;;;;;5050850;28;20547;-70
2024/01/31 03:19:09;;;;;;;36.40;21.10;;;7.40;99.90;;;;;;5059112;28;20228;-70
2024/01/31 03:21:34;;;;;;;43.73;22.97;;;7.50;99.90;;;;;;5070817;28;20253;-70
2024/01/31 03:24:00;;;;;;;37.93;22.13;;;7.50;99.90;;;;;;5070882;28;20269;-70
2024/01/31 03:26:26;;;;;;;41.70;23.27;;;7.50;99.90;;;;;;5070961;28;20644;-70
2024/01/31 03:28:51;;;;;;;36.83;22.03;;;7.60;99.90;;;;;;5069015;28;20585;-71
2024/01/31 03:31:17;;;;;;;37.63;22.20;;;7.60;99.90;;;;;;5070693;28;20712;-70
2024/01/31 03:33:42;;;;;;;42.53;22.90;;;7.60;99.90;;;;;;5070431;28;20306;-70
2024/01/31 03:36:11;;;;;;;40.50;22.10;;;7.50;99.90;;;;;;5070934;28;20194;-70
2024/01/31 03:38:38;;;;;;;40.07;22.57;;;7.60;99.90;;;;;;5070640;28;20568;-70
2024/01/31 03:41:04;;;;;;;38.63;23.17;;;7.60;99.90;;;;;;5070780;28;20167;-70
2024/01/31 03:43:30;;;;;;;40.83;21.93;;;7.60;99.90;;;;;;5055182;28;20195;-70
2024/01/31 03:45:56;;;;;;;46.50;22.60;;;7.50;99.90;;;;;;5054357;28;20506;-70
2024/01/31 03:48:22;;;;;;;41.30;22.97;;;7.40;99.90;;;;;;5064746;28;20177;-71
2024/01/31 03:50:47;;;;;;;41.70;23.30;;;7.30;99.90;;;;;;5056290;28;20266;-69
2024/01/31 03:53:13;;;;;;;41.10;22.90;;;7.30;99.90;;;;;;5054445;28;20213;-69
2024/01/31 03:55:39;;;;;;;41.33;23.33;;;7.30;99.90;;;;;;5061890;28;20193;-70
2024/01/31 03:58:05;;;;;;;38.33;22.03;;;7.30;99.90;;;;;;5074384;28;20541;-70
2024/01/31 04:00:30;;;;;;;38.37;21.83;;;7.30;99.90;;;;;;5073984;28;20177;-71
2024/01/31 04:02:56;;;;;;;29.37;17.40;;;7.30;99.90;;;;;;5074275;28;20174;-70
2024/01/31 04:05:22;;;;;;;26.17;16.00;;;7.20;99.90;;;;;;5073978;28;20285;-71
2024/01/31 04:07:47;;;;;;;27.23;16.17;;;7.20;99.90;;;;;;5074049;28;20182;-70
2024/01/31 04:10:14;;;;;;;20.90;14.27;;;7.10;99.90;;;;;;5049766;28;20186;-70
2024/01/31 04:12:39;;;;;;;24.67;13.43;;;7.00;99.90;;;;;;5057374;28;20198;-71
2024/01/31 04:15:05;;;;;;;24.90;13.67;;;6.90;99.90;;;;;;5073867;28;20225;-71
2024/01/31 04:17:31;;;;;;;19.57;12.50;;;6.90;99.90;;;;;;5074084;28;20245;-71
2024/01/31 04:19:57;;;;;;;23.40;13.03;;;6.80;99.90;;;;;;5074061;28;20316;-71
2024/01/31 04:22:22;;;;;;;20.57;11.70;;;6.80;99.90;;;;;;5074333;28;20166;-71
2024/01/31 04:24:48;;;;;;;21.00;12.63;;;6.70;99.90;;;;;;5056262;28;20238;-71
2024/01/31 04:27:13;;;;;;;21.33;12.30;;;6.80;99.90;;;;;;5053933;28;20273;-70
2024/01/31 04:29:40;;;;;;;15.30;11.10;;;6.80;99.90;;;;;;5053946;28;20181;-72
2024/01/31 04:32:08;;;;;;;17.63;10.27;;;6.80;99.90;;;;;;5053760;28;20209;-71
2024/01/31 04:34:38;;;;;;;20.50;10.87;;;6.80;99.90;;;;;;5054010;28;20202;-71
2024/01/31 04:37:03;;;;;;;18.73;10.80;;;6.90;99.90;;;;;;5053963;28;20228;-71
2024/01/31 04:39:29;;;;;;;13.67;10.63;;;6.80;99.90;;;;;;5069784;28;20653;-72
2024/01/31 04:41:55;;;;;;;16.63;9.93;;;6.90;99.90;;;;;;5073521;28;20207;-73
2024/01/31 04:44:20;;;;;;;14.30;9.43;;;6.80;99.90;;;;;;5073631;28;20190;-71
2024/01/31 04:46:46;;;;;;;15.40;9.17;;;6.80;99.90;;;;;;5073293;28;20243;-71
2024/01/31 04:49:11;;;;;;;15.03;9.50;;;6.80;99.90;;;;;;5073671;28;20253;-72
2024/01/31 04:51:41;;;;;;;17.70;9.70;;;6.70;99.90;;;;;;5065627;28;20202;-71
2024/01/31 04:54:07;;;;;;;17.23;9.03;;;6.70;99.90;;;;;;5052982;28;20194;-71
2024/01/31 04:56:33;;;;;;;18.80;8.93;;;6.70;99.90;;;;;;5053248;28;20167;-71
2024/01/31 04:58:59;;;;;;;14.50;9.20;;;6.60;99.90;;;;;;5060231;28;20170;-71
2024/01/31 05:01:24;;;;;;;11.50;8.30;;;6.70;99.90;;;;;;5073153;28;20185;-71
2024/01/31 05:03:50;;;;;;;13.87;8.83;;;6.60;99.90;;;;;;5072825;28;20296;-70
2024/01/31 05:06:15;;;;;;;14.10;8.67;;;6.60;99.90;;;;;;5073529;28;20173;-71
2024/01/31 05:08:41;;;;;;;16.33;9.00;;;6.60;99.90;;;;;;5072899;28;20262;-71
2024/01/31 05:11:06;;;;;;;11.37;8.83;;;6.60;99.90;;;;;;5072908;28;20170;-71
2024/01/31 05:13:32;;;;;;;15.30;9.67;;;6.60;99.90;;;;;;5067361;28;20676;-71
2024/01/31 05:15:58;;;;;;;15.30;9.03;;;6.70;99.90;;;;;;5053132;28;20198;-71
2024/01/31 05:18:23;;;;;;;16.47;8.23;;;6.60;99.90;;;;;;5052722;28;20233;-71
2024/01/31 05:20:49;;;;;;;12.73;8.43;;;6.60;99.90;;;;;;5068211;28;20182;-71
2024/01/31 05:23:15;;;;;;;16.43;9.90;;;6.60;99.90;;;;;;5072744;28;20545;-72
2024/01/31 05:25:40;;;;;;;12.43;8.30;;;6.70;99.90;;;;;;5072507;28;20212;-71
2024/01/31 05:28:06;;;;;;;15.13;8.40;;;6.60;99.90;;;;;;5072789;28;20231;-71
2024/01/31 05:30:31;;;;;;;12.13;8.60;;;6.70;99.90;;;;;;5072528;28;20285;-71
2024/01/31 05:32:57;;;;;;;13.97;8.60;;;6.50;99.90;;;;;;5072542;28;20209;-71
2024/01/31 05:35:24;;;;;;;12.60;8.30;;;6.60;99.90;;;;;;5057366;28;20211;-71
2024/01/31 05:37:49;;;;;;;11.33;8.73;;;6.60;99.90;;;;;;5052596;28;20219;-72
2024/01/31 05:40:16;;;;;;;11.60;8.17;;;6.70;99.90;;;;;;5052697;28;20167;-71
2024/01/31 05:42:42;;;;;;;14.60;9.13;;;6.70;99.90;;;;;;5059375;28;20178;-74
2024/01/31 05:45:08;;;;;;;12.87;8.73;;;6.60;99.90;;;;;;5072394;28;20568;-71
2024/01/31 05:47:35;;;;;;;15.07;9.07;;;6.60;99.90;;;;;;5065944;28;20191;-71
2024/01/31 05:50:01;;;;;;;11.10;8.53;;;6.70;99.90;;;;;;5053023;28;20175;-71
2024/01/31 05:52:27;;;;;;;12.70;8.80;;;6.60;99.90;;;;;;5052044;28;20207;-71
2024/01/31 05:54:52;;;;;;;17.03;8.57;;;6.70;99.90;;;;;;5051702;28;20244;-71
2024/01/31 05:57:18;;;;;;;14.20;8.53;;;6.60;99.90;;;;;;5051831;28;20225;-70
2024/01/31 05:59:43;;;;;;;13.03;9.23;;;6.50;99.90;;;;;;5051495;28;20278;-70
2024/01/31 06:02:09;;;;;;;12.07;9.33;;;6.50;99.90;;;;;;5052803;28;20716;-71
2024/01/31 06:04:34;;;;;;;16.27;9.17;;;6.60;99.90;;;;;;5051348;28;20284;-71
2024/01/31 06:07:00;;;;;;;11.13;8.17;;;6.60;99.90;;;;;;5051477;28;20632;-71
2024/01/31 06:09:26;;;;;;;12.17;8.80;;;6.50;99.90;;;;;;5051734;28;20174;-71
2024/01/31 06:11:52;;;;;;;13.00;7.67;;;6.70;99.90;;;;;;5051176;28;20298;-70
2024/01/31 06:14:17;;;;;;;9.53;8.10;;;6.60;99.90;;;;;;5051779;28;20281;-71
2024/01/31 06:16:43;;;;;;;14.23;8.00;;;6.70;99.90;;;;;;5066633;28;20224;-71
2024/01/31 06:19:09;;;;;;;10.93;7.50;;;6.60;99.90;;;;;;5071497;28;20179;-71
2024/01/31 06:21:34;;;;;;;11.17;7.20;;;6.60;99.90;;;;;;5071472;28;20210;-70
2024/01/31 06:24:00;;;;;;;15.40;9.00;;;6.60;99.90;;;;;;5071362;28;20197;-70
2024/01/31 06:26:28;;;;;;;15.33;9.37;;;6.70;99.90;;;;;;5071393;28;20790;-70
2024/01/31 06:28:54;;;;;;;11.17;8.90;;;6.60;99.90;;;;;;5071170;28;20546;-71
2024/01/31 06:31:28;;;;;;;13.73;8.23;;;6.50;99.90;;;;;;5069529;28;20239;-71
2024/01/31 06:33:54;;;;;;;10.30;8.03;;;6.60;99.90;;;;;;5070997;28;20597;-71
2024/01/31 06:36:22;;;;;;;11.63;8.07;;;6.60;99.90;;;;;;5071067;28;20174;-71
2024/01/31 06:38:48;;;;;;;18.23;11.33;;;6.60;99.90;;;;;;5070926;28;20217;-70
2024/01/31 06:41:14;;;;;;;12.50;9.53;;;6.60;99.90;;;;;;5070895;28;20181;-71
2024/01/31 06:43:40;;;;;;;14.20;8.67;;;6.50;99.90;;;;;;5064245;28;20226;-71
2024/01/31 06:46:06;;;;;;;14.00;9.23;;;6.60;99.90;;;;;;5051059;28;20175;-72
2024/01/31 06:48:31;;;;;;;12.70;8.33;;;6.50;99.90;;;;;;5050884;28;20166;-72
2024/01/31 06:50:57;;;;;;;10.17;8.30;;;6.50;99.90;;;;;;5032813;28;20608;-72
2024/01/31 06:53:22;;;;;;;13.77;8.13;;;6.50;99.90;;;;;;5050850;28;20293;-71
2024/01/31 06:55:48;;;;;;;11.63;7.93;;;6.50;99.90;;;;;;5050632;28;20217;-71
2024/01/31 06:58:14;;;;;;;12.77;8.70;;;6.60;99.90;;;;;;5054977;28;20178;-71
2024/01/31 07:00:39;;;;;;;12.50;8.30;;;6.40;99.90;;;;;;5070644;28;20228;-71
2024/01/31 07:03:05;;;;;;;12.77;7.60;;;6.40;99.90;;;;;;5071320;28;20186;-71
2024/01/31 07:07:58;;;;;;;12.83;7.10;;;6.50;99.90;;;;;;5068737;28;20661;-74
2024/01/31 07:10:24;;;;;;;9.53;7.73;;;6.40;99.90;;;;;;5073557;28;20166;-74
2024/01/31 07:12:52;;;;;;;14.87;8.20;;;6.40;99.90;;;;;;5089191;28;20212;-73
2024/01/31 07:15:21;;;;;;;12.47;7.53;;;6.50;99.90;;;;;;5078693;28;20208;-74
2024/01/31 07:17:47;;;;;;;11.83;7.23;;;6.50;99.90;;;;;;5075164;28;20243;-74
2024/01/31 07:20:13;;;;;;;12.73;7.63;;;6.50;99.90;;;;;;5072226;28;20178;-74
2024/01/31 07:22:38;;;;;;;13.40;9.77;;;6.40;99.90;;;;;;5053217;28;20697;-74
2024/01/31 07:25:10;;;;;;;11.23;8.30;;;6.40;99.90;;;;;;5049800;28;20599;-74
2024/01/31 07:27:40;;;;;;;10.10;7.00;;;6.40;99.90;;;;;;5051541;28;20199;-72
2024/01/31 07:30:08;;;;;;;10.50;7.00;;;6.40;99.90;;;;;;5051523;28;20170;-73
2024/01/31 07:32:34;;;;;;;9.67;7.13;;;6.50;99.90;;;;;;5050637;28;20269;-74
2024/01/31 07:34:59;;;;;;;8.73;6.40;;;6.50;99.90;;;;;;5052500;28;20186;-73
2024/01/31 07:37:25;;;;;;;11.00;7.30;;;6.50;99.90;;;;;;5070830;28;20223;-72
2024/01/31 07:39:50;;;;;;;13.57;6.80;;;6.50;99.90;;;;;;5068910;28;20177;-73
2024/01/31 07:42:16;;;;;;;8.40;6.50;;;6.50;99.90;;;;;;5070568;28;20227;-72
2024/01/31 07:44:41;;;;;;;9.00;6.97;;;6.50;99.90;;;;;;5070673;28;20222;-72
2024/01/31 07:47:07;;;;;;;9.10;7.17;;;6.60;99.90;;;;;;5070512;28;20526;-73
2024/01/31 07:49:33;;;;;;;7.77;6.97;;;6.60;99.90;;;;;;5070662;28;20173;-73
2024/01/31 07:51:58;;;;;;;10.13;7.17;;;6.60;99.90;;;;;;5071053;28;20178;-72
2024/01/31 07:54:24;;;;;;;12.83;7.87;;;6.60;99.90;;;;;;5065089;28;20191;-74
2024/01/31 07:56:49;;;;;;;12.60;7.43;;;6.60;99.90;;;;;;5050633;28;20179;-73
2024/01/31 07:59:15;;;;;;;12.77;7.53;;;6.70;99.90;;;;;;5050887;28;20660;-73
2024/01/31 08:01:40;;;;;;;7.33;6.60;;;6.70;99.90;;;;;;5050151;28;20202;-74
2024/01/31 08:04:07;;;;;;;9.07;6.40;;;6.70;99.90;;;;;;5060090;28;20290;-72
2024/01/31 08:06:32;;;;;;;8.20;6.50;;;6.60;99.90;;;;;;5069910;28;20259;-73
2024/01/31 08:08:58;;;;;;;13.50;6.63;;;6.60;99.90;;;;;;5054372;28;20175;-72
2024/01/31 08:11:23;;;;;;;14.27;7.20;;;6.70;99.90;;;;;;5050195;28;20167;-72
2024/01/31 08:13:49;;;;;;;9.53;7.43;;;6.60;99.90;;;;;;5050080;28;20230;-73
2024/01/31 08:16:15;;;;;;;10.33;8.27;;;6.70;99.90;;;;;;5050356;28;20175;-72
2024/01/31 08:18:41;;;;;;;12.03;8.70;;;6.60;99.90;;;;;;5050265;28;20167;-72
2024/01/31 08:21:07;;;;;;;11.60;9.67;;;6.60;99.90;;;;;;5050316;28;20573;-73
2024/01/31 08:23:33;;;;;;;14.47;9.97;;;6.70;99.90;;;;;;5063994;28;20677;-73
2024/01/31 08:25:58;;;;;;;10.07;8.40;;;6.70;99.90;;;;;;5070778;28;20175;-72
2024/01/31 08:28:24;;;;;;;11.27;7.57;;;6.70;99.90;;;;;;5052113;28;20174;-73
2024/01/31 08:30:49;;;;;;;15.77;8.13;;;6.60;99.90;;;;;;5072629;28;20198;-73
2024/01/31 08:33:15;;;;;;;11.90;7.30;;;6.70;99.90;;;;;;5064574;28;20650;-73
2024/01/31 08:35:41;;;;;;;12.10;9.13;;;6.60;99.90;;;;;;5035695;28;20286;-73
2024/01/31 08:38:06;;;;;;;11.63;9.97;;;6.70;99.90;;;;;;5054692;28;20615;-74
2024/01/31 08:40:32;;;;;;;18.13;9.50;;;6.70;99.90;;;;;;5055720;28;20186;-74
2024/01/31 08:42:58;;;;;;;12.00;8.03;;;6.80;99.90;;;;;;5053667;28;20259;-74
2024/01/31 08:45:26;;;;;;;13.83;9.47;;;6.80;99.90;;;;;;5053530;28;20620;-74
2024/01/31 08:47:52;;;;;;;16.47;11.60;;;6.90;99.90;;;;;;5053368;28;20210;-74
2024/01/31 08:50:18;;;;;;;11.00;9.27;;;6.90;99.90;;;;;;5055628;28;20607;-74
2024/01/31 08:52:44;;;;;;;15.10;10.20;;;6.90;99.90;;;;;;5055597;28;20543;-74
2024/01/31 08:55:09;;;;;;;14.60;11.23;;;7.00;99.90;;;;;;5056674;28;20285;-75
2024/01/31 08:57:35;;;;;;;15.93;10.77;;;7.00;99.90;;;;;;5059586;28;20175;-74
2024/01/31 09:00:04;;;;;;;19.60;12.13;;;7.00;99.90;;;;;;5059331;28;20183;-74
2024/01/31 09:02:29;;;;;;;19.00;11.40;;;7.10;99.90;;;;;;5057478;28;20206;-75
2024/01/31 09:04:55;;;;;;;25.33;14.80;;;7.20;99.90;;;;;;5069351;28;20201;-75
2024/01/31 09:07:20;;;;;;;25.73;15.80;;;7.10;99.90;;;;;;5056700;28;20621;-74
2024/01/31 09:09:46;;;;;;;31.73;17.77;;;7.20;99.90;;;;;;5055455;28;20262;-74
2024/01/31 09:12:12;;;;;;;38.47;17.53;;;7.30;99.90;;;;;;5065591;28;20209;-73
2024/01/31 09:14:38;;;;;;;29.47;16.37;;;7.30;99.90;;;;;;5058607;28;20827;-74
2024/01/31 09:17:04;;;;;;;32.93;17.90;;;7.30;99.90;;;;;;5032377;28;20237;-73
2024/01/31 09:19:30;;;;;;;32.10;17.97;;;7.40;99.90;;;;;;5037696;28;20172;-73
2024/01/31 09:21:56;;;;;;;34.90;19.07;;;7.50;99.90;;;;;;5037156;28;20214;-73
2024/01/31 09:24:21;;;;;;;36.90;19.17;;;7.50;99.90;;;;;;5038814;28;20236;-73
2024/01/31 09:26:47;;;;;;;34.00;20.07;;;7.50;99.90;;;;;;5039125;28;20180;-72
2024/01/31 09:29:13;;;;;;;33.97;20.00;;;7.60;99.90;;;;;;5017160;28;20245;-73
2024/01/31 09:31:39;;;;;;;38.60;20.10;;;7.60;99.90;;;;;;5032789;28;20183;-73
2024/01/31 09:34:04;;;;;;;16.17;11.97;;;7.70;99.90;;;;;;5033075;28;20206;-72
2024/01/31 09:36:30;;;;;;;15.17;9.87;;;7.70;99.90;;;;;;5032934;28;20628;-72
2024/01/31 09:38:55;;;;;;;14.40;8.90;;;7.60;99.90;;;;;;5032719;28;20171;-75
2024/01/31 09:41:21;;;;;;;13.33;8.53;;;7.60;99.90;;;;;;5032188;28;20180;-73
2024/01/31 09:43:47;;;;;;;14.50;9.70;;;7.60;99.90;;;;;;5049477;28;20217;-73
2024/01/31 09:46:13;;;;;;;14.37;8.97;;;7.60;99.90;;;;;;5052638;28;20175;-72
2024/01/31 09:48:40;;;;;;;14.23;10.10;;;7.60;99.90;;;;;;5052481;28;20179;-72
2024/01/31 09:51:06;;;;;;;16.30;9.33;;;7.60;99.90;;;;;;5052541;28;20174;-74
2024/01/31 09:53:39;;;;;;;15.97;9.03;;;7.60;99.90;;;;;;5053456;28;20638;-73
2024/01/31 09:56:06;;;;;;;13.97;9.10;;;7.70;99.90;;;;;;5068497;28;20177;-73
2024/01/31 09:58:32;;;;;;;14.50;9.30;;;7.70;99.90;;;;;;5067900;28;20654;-73
2024/01/31 10:01:00;;;;;;;17.83;10.17;;;7.70;99.90;;;;;;5069008;28;20186;-73
2024/01/31 10:03:26;;;;;;;13.17;9.17;;;7.80;99.90;;;;;;5076024;28;20685;-73
2024/01/31 10:05:51;;;;;;;14.17;10.10;;;7.80;99.90;;;;;;5076359;28;20194;-73
2024/01/31 10:08:17;;;;;;;15.30;10.87;;;7.80;99.90;;;;;;5077079;28;20585;-74
2024/01/31 10:10:43;;;;;;;16.67;10.73;;;7.80;99.90;;;;;;5076805;28;20254;-73
2024/01/31 10:13:12;;;;;;;23.40;14.97;;;7.90;99.90;;;;;;5077902;28;20174;-74
2024/01/31 10:15:37;;;;;;;30.53;17.07;;;7.90;99.90;;;;;;5077671;28;20182;-74
2024/01/31 10:18:04;;;;;;;33.13;18.70;;;7.90;99.90;;;;;;5071773;28;20631;-73
2024/01/31 10:20:30;;;;;;;35.80;19.77;;;7.90;99.90;;;;;;5059974;28;20229;-72
2024/01/31 10:22:58;;;;;;;34.97;20.50;;;8.00;99.90;;;;;;5036768;28;20301;-73
2024/01/31 10:25:25;;;;;;;34.20;20.13;;;8.00;99.90;;;;;;5051694;28;20665;-72
2024/01/31 10:27:52;;;;;;;31.33;20.30;;;8.00;99.90;;;;;;5051107;28;20197;-71
2024/01/31 10:30:18;;;;;;;35.73;21.17;;;8.10;99.90;;;;;;5051645;28;20205;-72
2024/01/31 10:32:45;;;;;;;33.57;20.50;;;8.10;99.90;;;;;;5051324;28;20190;-72
2024/01/31 10:35:11;;;;;;;31.90;18.93;;;8.30;99.90;;;;;;5051538;28;20197;-72
2024/01/31 10:37:37;;;;;;;36.53;20.93;;;8.40;99.90;;;;;;5052764;28;20170;-73
2024/01/31 10:40:05;;;;;;;30.83;19.00;;;8.50;99.90;;;;;;5072641;28;20257;-74
2024/01/31 10:42:31;;;;;;;36.83;18.30;;;8.50;99.90;;;;;;5072628;28;20190;-73
2024/01/31 10:44:58;;;;;;;28.87;18.23;;;8.60;99.90;;;;;;5073180;28;20190;-73
2024/01/31 10:47:23;;;;;;;27.87;17.53;;;8.70;99.90;;;;;;5058924;28;20182;-74
2024/01/31 10:49:49;;;;;;;30.10;18.47;;;8.70;99.90;;;;;;5060182;28;20167;-72
2024/01/31 10:52:20;;;;;;;27.03;16.23;;;8.80;99.90;;;;;;5058482;28;20197;-73
2024/01/31 10:54:56;;;;;;;27.27;16.70;;;9.00;99.90;;;;;;5053869;28;20189;-73
2024/01/31 10:57:22;;;;;;;25.03;17.47;;;9.00;99.90;;;;;;5051295;28;20649;-73
2024/01/31 10:59:51;;;;;;;19.20;14.77;;;9.10;99.90;;;;;;5051300;28;20253;-73
2024/01/31 11:02:17;;;;;;;17.90;13.53;;;9.10;99.90;;;;;;5051200;28;20210;-72
2024/01/31 11:04:43;;;;;;;18.90;12.03;;;9.20;99.90;;;;;;5050994;28;20293;-73
2024/01/31 11:07:21;;;;;;;15.70;12.80;;;9.20;99.90;;;;;;5050763;28;20195;-72
2024/01/31 11:09:47;;;;;;;14.40;12.00;;;9.20;99.90;;;;;;5050859;28;20182;-73
2024/01/31 11:12:17;;;;;;;16.23;11.90;;;9.30;99.90;;;;;;5050778;28;20201;-72
2024/01/31 11:14:47;;;;;;;16.13;10.40;;;9.40;99.90;;;;;;5050859;28;20186;-72
2024/01/31 11:17:22;;;;;;;13.03;10.67;;;9.50;99.90;;;;;;5051909;28;20197;-74
2024/01/31 11:19:51;;;;;;;13.43;9.60;;;9.60;99.90;;;;;;5050965;28;20169;-74
2024/01/31 11:22:18;;;;;;;12.93;9.80;;;9.60;99.90;;;;;;5051073;28;20226;-72
2024/01/31 11:24:49;;;;;;;12.10;9.90;;;9.70;99.90;;;;;;5063259;28;20220;-72
2024/01/31 11:27:16;;;;;;;12.13;9.27;;;9.70;99.90;;;;;;5070924;28;20170;-74
2024/01/31 11:29:45;;;;;;;11.43;8.90;;;9.80;99.90;;;;;;5070651;28;20170;-72
2024/01/31 11:32:12;;;;;;;12.07;9.43;;;9.90;99.90;;;;;;5070642;28;20236;-73
2024/01/31 11:34:37;;;;;;;8.87;7.97;;;10.00;99.90;;;;;;5056975;28;20202;-73
2024/01/31 11:37:03;;;;;;;12.07;8.97;;;10.10;99.90;;;;;;5050724;28;20236;-73
2024/01/31 11:39:29;;;;;;;9.93;8.97;;;10.10;99.90;;;;;;5050564;28;20193;-73
2024/01/31 11:41:55;;;;;;;12.43;9.93;;;10.10;99.90;;;;;;5050374;28;20256;-73
2024/01/31 11:44:21;;;;;;;13.23;8.90;;;10.20;99.90;;;;;;5054385;28;20194;-73
2024/01/31 11:46:47;;;;;;;12.97;9.70;;;10.20;99.90;;;;;;5070509;28;20178;-73
2024/01/31 11:49:12;;;;;;;12.07;8.57;;;10.20;99.90;;;;;;5070468;28;20173;-72
2024/01/31 11:51:38;;;;;;;8.87;7.97;;;10.20;99.90;;;;;;5070375;28;20170;-71
2024/01/31 11:54:04;;;;;;;11.90;9.10;;;10.20;99.90;;;;;;5075467;28;20193;-73
2024/01/31 11:56:30;;;;;;;12.53;9.13;;;10.00;99.90;;;;;;5070616;28;20178;-72
2024/01/31 11:58:57;;;;;;;10.37;7.83;;;9.90;99.90;;;;;;5068769;28;20178;-72
2024/01/31 12:01:24;;;;;;;10.23;7.67;;;9.70;99.90;;;;;;5070253;28;20173;-73
2024/01/31 12:03:50;;;;;;;13.60;9.07;;;9.70;99.90;;;;;;5071484;28;20182;-72
2024/01/31 12:06:19;;;;;;;10.93;8.20;;;9.70;99.90;;;;;;5074291;28;20181;-73
2024/01/31 12:08:48;;;;;;;9.07;7.37;;;9.70;99.90;;;;;;5073736;28;20174;-73
2024/01/31 12:11:16;;;;;;;8.03;7.00;;;9.60;99.90;;;;;;5074374;28;20174;-73
2024/01/31 12:13:44;;;;;;;10.20;6.50;;;9.60;99.90;;;;;;5074175;28;20178;-73
2024/01/31 12:16:10;;;;;;;24.30;10.17;;;9.50;99.90;;;;;;5074075;28;20228;-73
2024/01/31 12:18:36;;;;;;;13.63;9.17;;;9.40;99.90;;;;;;5056810;28;20183;-73
2024/01/31 12:21:03;;;;;;;8.20;7.30;;;9.40;99.90;;;;;;5057127;28;20178;-73
2024/01/31 12:23:29;;;;;;;14.63;9.27;;;9.30;99.90;;;;;;5058777;28;20800;-72
2024/01/31 12:25:55;;;;;;;21.83;11.23;;;9.30;99.90;;;;;;5057825;28;20214;-72
2024/01/31 12:28:21;;;;;;;15.17;10.30;;;9.30;99.90;;;;;;5055110;28;20168;-71
2024/01/31 12:30:47;;;;;;;10.97;9.13;;;9.20;99.90;;;;;;5055280;28;20167;-72
2024/01/31 12:33:12;;;;;;;25.90;13.93;;;9.20;99.90;;;;;;5055710;28;20179;-72
2024/01/31 12:35:38;;;;;;;10.83;8.50;;;9.20;99.90;;;;;;5058040;28;20256;-72
2024/01/31 12:38:03;;;;;;;19.63;12.17;;;9.10;99.90;;;;;;5056377;28;20265;-73